Ahousat, Canada
Current Conditions -  °F | °C
As of 5:00 PM on Sunday 25 Jan 2015 (Local Time) from CYAZ Reporting Station
Haze Haze  
Wind Chill: 50°   Ceiling: 16000
Heat Index: 50°   Visibility: 3mi
Dew Point: 50°   Wind: 2mph
Humidity: 100%   Direction: 140°SE
Pressure: 30.03"   Gusts: NA
Location:  49.28°N, 126.08°W
Report Text: CYAZ 260100Z 14002KT 3SM BR FEW005 SCT015 BKN160 OVC220 10/10 A3003 RMK SF1SC3AC2CS3 SF TR VIS HIER E LAST OBS/NEXT 261500UTC SLP170
Loading
Personal Weather Stations






























Interactive Weather Map New forecast layout! Learn more

10-Day Weather Forecast

Advertisements
Track Severe Weather on mobile